Shumway, Illinois
Current Conditions -  °F | °C
As of 3:35 AM on Thursday 18 Dec 2014 (Local Time) from K1H2 Reporting Station
Overcast Overcast  
Wind Chill: 20°   Ceiling: 1300
Heat Index: 26°   Visibility: 10mi
Dew Point: 20°   Wind: 5mph
Humidity: 79%   Direction: 40°NE
Pressure: 30.29"   Gusts: NA
Location:  39.19°N, 88.65°W
Report Text: K1H2 180935Z AUTO 04004KT 10SM OVC013 M03/M06 A3029 RMK AO2 T10341065
Loading
Personal Weather Stations






























Interactive Weather Map New forecast layout! Learn more

10-Day Weather Forecast

Advertisements
Track Severe Weather on mobile